SMZO/ORG METAR and TAF weather

Enter ICAO airport designator
Station Type Date Time Source
SMZO METAR 2021/09/24 00:00 UTC NOAA

SMZO 240000Z 02002KT CAVOK 29/25 Q1011 NOSIG


Station Type Date Time Source
SMZO Decoded METAR 2021/09/24 00:00 UTC NOAA

Station name not available
Sep 23, 2021 - 08:00 PM EDT / 2021.09.24 0000 UTC
Wind: from the NNE (020 degrees) at 2 MPH (2 KT):0
Visibility: greater than 7 mile(s):0
Temperature: 84 F (29 C)
Dew Point: 77 F (25 C)
Relative Humidity: 79%
Pressure (altimeter): 29.85 in. Hg (1011 hPa)
ob: SMZO 240000Z 02002KT CAVOK 29/25 Q1011 NOSIG
cycle: 0

Station Type Date Time Source
SMZO TAF 2021/09/23 18:15 UTC NOAA

TAF TAF SMZO 231600Z 2318/2418 08007KT 9999 SCT025 TX34/2416Z TN24/2409

Example: see airport list